Azure — ZCEE2 — position and weather

sailwx.info

Track history (hours):
 
Tides and Currents Weather Stations Pressure Air Temp Water Temp Dewpoint Dewpoint Depression Visibility Wind Speed Wind Dir Waves Ship Positions

Azure

Last reported at 2016-Sep-25 15:28 UTC. Time now 2016-Sep-25 15:47 UTC.
Position N 43°32' E 007°01'.

Length 289 m; draft 8.6 m.

Type: Passenger vessel. MMSI: 310610000.

Date/timePositionNaut miles runAvg speedWind from/ knotsBaromVisibWave heightAir tempDewpointWater temp
2016-Sep-25 15:28N 43°32' E 007°01'0 0.0
2016-Sep-25 14:31N 43°32' E 007°01'0 0.0
2016-Sep-25 12:28N 43°32' E 007°01'0 0.0
2016-Sep-25 11:28N 43°32' E 007°01'0 0.0
2016-Sep-25 10:28N 43°32' E 007°01'0 0.0
2016-Sep-25 09:25N 43°32' E 007°01'0 0.0
2016-Sep-25 07:28N 43°32' E 007°01'14 4.8
2016-Sep-25 04:33N 43°26' E 007°18'5822.7
2016-Sep-25 02:00N 43°12' E 008°36'2215.6 050 / 111021.210.8 0.523.022.323.0
2016-Sep-25 00:33N 43°11' E 009°07'3919.2
2016-Sep-24 22:33N 42°50' E 009°51'2519.3
2016-Sep-24 21:16N 42°34' E 010°17'52 2.7
2016-Sep-24 02:00N 41°48' E 010°48'35318.1 020 / 41022.810.8 21.017.822.0
2016-Sep-23 06:31N 39°15' E 003°49'1711.4
2016-Sep-23 05:00N 39°06' E 003°30'2148.5 110 / 121021.310.8 24.019.725.0
2016-Sep-23 04:33N 38°55' E 003°06'2019.8
2016-Sep-23 03:33N 38°46' E 002°44'1919.5
2016-Sep-23 02:33N 38°37' E 002°22'1425.4
2016-Sep-23 02:00N 38°30' E 002°06'1315.7 100 / 81020.010.8 0.525.022.026.0
2016-Sep-23 01:11N 38°25' E 001°51'1319.7
2016-Sep-23 00:32N 38°19' E 001°36'1919.7
2016-Sep-22 23:33N 38°10' E 001°15'5819.5
2016-Sep-22 20:33N 37°43' E 000°09'96 6.0
2016-Sep-22 04:34N 36°54' W 001°34'1919.4
2016-Sep-22 03:33N 36°39' W 001°49'5819.1
2016-Sep-22 00:31N 36°17' W 002°56'1919.8
2016-Sep-21 23:33N 36°14' W 003°19'2119.7
2016-Sep-21 22:30N 36°09' W 003°45'6521.3
2016-Sep-21 19:28N 36°00' W 005°04'97 5.9
2016-Sep-21 03:13N 36°33' W 006°57'1420.9
2016-Sep-21 02:34N 36°33' W 007°14'15417.1
2016-Sep-20 17:34N 37°59' W 009°54'6220.7
2016-Sep-20 14:34N 39°01' W 010°05'1730.3
2016-Sep-20 14:00N 39°18' W 010°06'4 8.1 350 / 161017.510.8 1.022.515.020.0
2016-Sep-20 13:34N 39°21' W 010°07'13120.3
2016-Sep-20 07:07N 41°33' W 010°07'10520.6
2016-Sep-20 02:00N 43°18' W 010°06'28523.8 030 / 261020.710.8 0.518.514.217.0
2016-Sep-19 14:00N 46°54' W 005°42'9915.5 020 / 151024.0 5.4 0.519.012.819.0
2016-Sep-19 07:34N 48°33' W 005°22'1817.7
2016-Sep-19 06:34N 48°45' W 005°03'5517.1
2016-Sep-19 03:22N 49°21' W 004°01'1620.1
2016-Sep-19 02:33N 49°32' W 003°41'1832.6
2016-Sep-19 02:00N 49°42' W 003°18'2416.6 310 / 61022.910.8 19.0 9.617.0
2016-Sep-19 00:34N 49°58' W 002°51'8216.4
2016-Sep-18 19:34N 50°38' W 000°59'23 5.7
2016-Sep-18 15:33N 50°54' W 001°26'0 0.0
2016-Sep-18 14:33N 50°54' W 001°26'0 0.0
2016-Sep-18 10:33N 50°54' W 001°26'0 0.0
2016-Sep-18 09:33N 50°54' W 001°26'25 3.6
2016-Sep-18 02:33N 50°33' W 001°03'1110.9
2016-Sep-18 01:33N 50°28' W 001°18'5712.9
2016-Sep-17 21:08N 49°55' W 002°31'1117.0
2016-Sep-17 20:30N 49°50' W 002°46'103 5.2
2016-Sep-17 00:34N 50°27' W 000°15'12417.7
2016-Sep-16 17:33N 51°22' E 002°41'19 9.6
2016-Sep-16 15:33N 51°20' E 003°12'0 0.0
2016-Sep-16 12:33N 51°20' E 003°12'0 0.0
2016-Sep-16 09:33N 51°20' E 003°12'0 0.0
2016-Sep-16 07:33N 51°20' E 003°12'26 6.4
2016-Sep-16 03:33N 51°22' E 002°31'1212.2
2016-Sep-16 02:33N 51°16' E 002°14'1628.9
2016-Sep-16 02:00N 51°06' E 001°54'1913.2 220 / 151010.610.8 0.520.015.819.0
2016-Sep-16 00:33N 50°57' E 001°28'5217.4
2016-Sep-15 21:33N 50°26' E 000°21'1818.2
2016-Sep-15 20:33N 50°24' W 000°07'3718.3
2016-Sep-15 18:33N 50°41' W 000°57'  
Track history (hours):
 
Tides and Currents Weather Stations Pressure Air Temp Water Temp Dewpoint Dewpoint Depression Visibility Wind Speed Wind Dir Waves Ship Positions

Azure

Last reported at 2016-Sep-25 15:28 UTC. Time now 2016-Sep-25 15:47 UTC.
Position N 43°32' E 007°01'.

Length 289 m; draft 8.6 m.

Type: Passenger vessel. MMSI: 310610000.

Date/timePositionNaut miles runAvg speedWind from/ knotsBaromVisibWave heightAir tempDewpointWater temp
2016-Sep-25 15:28N 43°32' E 007°01'0 0.0
2016-Sep-25 14:31N 43°32' E 007°01'0 0.0
2016-Sep-25 12:28N 43°32' E 007°01'0 0.0
2016-Sep-25 11:28N 43°32' E 007°01'0 0.0
2016-Sep-25 10:28N 43°32' E 007°01'0 0.0
2016-Sep-25 09:25N 43°32' E 007°01'0 0.0
2016-Sep-25 07:28N 43°32' E 007°01'14 4.8
2016-Sep-25 04:33N 43°26' E 007°18'5822.7
2016-Sep-25 02:00N 43°12' E 008°36'2215.6 050 / 111021.210.8 0.523.022.323.0
2016-Sep-25 00:33N 43°11' E 009°07'3919.2
2016-Sep-24 22:33N 42°50' E 009°51'2519.3
2016-Sep-24 21:16N 42°34' E 010°17'52 2.7
2016-Sep-24 02:00N 41°48' E 010°48'35318.1 020 / 41022.810.8 21.017.822.0
2016-Sep-23 06:31N 39°15' E 003°49'1711.4
2016-Sep-23 05:00N 39°06' E 003°30'2148.5 110 / 121021.310.8 24.019.725.0
2016-Sep-23 04:33N 38°55' E 003°06'2019.8
2016-Sep-23 03:33N 38°46' E 002°44'1919.5
2016-Sep-23 02:33N 38°37' E 002°22'1425.4
2016-Sep-23 02:00N 38°30' E 002°06'1315.7 100 / 81020.010.8 0.525.022.026.0
2016-Sep-23 01:11N 38°25' E 001°51'1319.7
2016-Sep-23 00:32N 38°19' E 001°36'1919.7
2016-Sep-22 23:33N 38°10' E 001°15'5819.5
2016-Sep-22 20:33N 37°43' E 000°09'96 6.0
2016-Sep-22 04:34N 36°54' W 001°34'1919.4
2016-Sep-22 03:33N 36°39' W 001°49'5819.1
2016-Sep-22 00:31N 36°17' W 002°56'1919.8
2016-Sep-21 23:33N 36°14' W 003°19'2119.7
2016-Sep-21 22:30N 36°09' W 003°45'6521.3
2016-Sep-21 19:28N 36°00' W 005°04'97 5.9
2016-Sep-21 03:13N 36°33' W 006°57'1420.9
2016-Sep-21 02:34N 36°33' W 007°14'15417.1
2016-Sep-20 17:34N 37°59' W 009°54'6220.7
2016-Sep-20 14:34N 39°01' W 010°05'1730.3
2016-Sep-20 14:00N 39°18' W 010°06'4 8.1 350 / 161017.510.8 1.022.515.020.0
2016-Sep-20 13:34N 39°21' W 010°07'13120.3
2016-Sep-20 07:07N 41°33' W 010°07'10520.6
2016-Sep-20 02:00N 43°18' W 010°06'28523.8 030 / 261020.710.8 0.518.514.217.0
2016-Sep-19 14:00N 46°54' W 005°42'9915.5 020 / 151024.0 5.4 0.519.012.819.0
2016-Sep-19 07:34N 48°33' W 005°22'1817.7
2016-Sep-19 06:34N 48°45' W 005°03'5517.1
2016-Sep-19 03:22N 49°21' W 004°01'1620.1
2016-Sep-19 02:33N 49°32' W 003°41'1832.6
2016-Sep-19 02:00N 49°42' W 003°18'2416.6 310 / 61022.910.8 19.0 9.617.0
2016-Sep-19 00:34N 49°58' W 002°51'8216.4
2016-Sep-18 19:34N 50°38' W 000°59'23 5.7
2016-Sep-18 15:33N 50°54' W 001°26'0 0.0
2016-Sep-18 14:33N 50°54' W 001°26'0 0.0
2016-Sep-18 10:33N 50°54' W 001°26'0 0.0
2016-Sep-18 09:33N 50°54' W 001°26'25 3.6
2016-Sep-18 02:33N 50°33' W 001°03'1110.9
2016-Sep-18 01:33N 50°28' W 001°18'5712.9
2016-Sep-17 21:08N 49°55' W 002°31'1117.0
2016-Sep-17 20:30N 49°50' W 002°46'103 5.2
2016-Sep-17 00:34N 50°27' W 000°15'12417.7
2016-Sep-16 17:33N 51°22' E 002°41'19 9.6
2016-Sep-16 15:33N 51°20' E 003°12'0 0.0
2016-Sep-16 12:33N 51°20' E 003°12'0 0.0
2016-Sep-16 09:33N 51°20' E 003°12'0 0.0
2016-Sep-16 07:33N 51°20' E 003°12'26 6.4
2016-Sep-16 03:33N 51°22' E 002°31'1212.2
2016-Sep-16 02:33N 51°16' E 002°14'1628.9
2016-Sep-16 02:00N 51°06' E 001°54'1913.2 220 / 151010.610.8 0.520.015.819.0
2016-Sep-16 00:33N 50°57' E 001°28'5217.4
2016-Sep-15 21:33N 50°26' E 000°21'1818.2
2016-Sep-15 20:33N 50°24' W 000°07'3718.3
2016-Sep-15 18:33N 50°41' W 000°57'  

Dump ship's entire track history